Time;durP1;ratioP1;P1;durP2;ratioP2;P2;SDS_P1;SDS_P2;PMS_P1;PMS_P2;Temp;Humidity;BMP_temperature;BMP_pressure;BME280_temperature;BME280_humidity;BME280_pressure;Samples;Min_cycle;Max_cycle;Signal;HPM_P1;HPM_P2
2021/01/01 00:01:16;;;;;;;56.30;47.67;;;;;;;;;;5107185;28;20197;-49
2021/01/01 00:03:41;;;;;;;64.67;49.70;;;;;;;;;;5104509;28;20523;-50
2021/01/01 00:06:10;;;;;;;61.53;51.10;;;;;;;;;;5106886;28;20179;-49
2021/01/01 00:08:35;;;;;;;72.37;57.10;;;;;;;;;;5106514;28;20176;-49
2021/01/01 00:11:00;;;;;;;86.87;67.33;;;;;;;;;;5110841;28;20627;-49
2021/01/01 00:13:26;;;;;;;91.30;67.78;;;;;;;;;;5106191;28;20260;-50
2021/01/01 00:15:51;;;;;;;81.85;61.38;;;;;;;;;;5103321;28;20658;-50
2021/01/01 00:18:16;;;;;;;72.28;56.58;;;;;;;;;;5105983;28;20273;-49
2021/01/01 00:20:42;;;;;;;71.78;54.15;;;;;;;;;;5104938;28;20279;-50
2021/01/01 00:23:08;;;;;;;66.80;50.50;;;;;;;;;;5115282;28;20667;-49
2021/01/01 00:25:33;;;;;;;53.97;45.80;;;;;;;;;;5107824;28;20665;-50
2021/01/01 00:27:58;;;;;;;53.10;43.87;;;;;;;;;;5114392;27;20597;-49
2021/01/01 00:30:23;;;;;;;50.30;41.30;;;;;;;;;;5113156;27;20823;-50
2021/01/01 00:32:48;;;;;;;48.17;40.23;;;;;;;;;;5110844;27;20184;-50
2021/01/01 00:35:17;;;;;;;45.60;40.60;;;;;;;;;;5110868;27;20191;-49
2021/01/01 00:37:42;;;;;;;48.27;39.03;;;;;;;;;;5114072;27;20187;-51
2021/01/01 00:40:07;;;;;;;49.63;39.65;;;;;;;;;;5113408;28;20598;-50
2021/01/01 00:42:36;;;;;;;44.90;38.70;;;;;;;;;;5112395;28;20219;-51
2021/01/01 00:45:01;;;;;;;47.57;39.30;;;;;;;;;;5110994;28;20240;-51
2021/01/01 00:47:26;;;;;;;46.70;38.50;;;;;;;;;;5112625;28;20591;-51
2021/01/01 00:49:52;;;;;;;50.90;39.33;;;;;;;;;;5113073;28;20699;-51
2021/01/01 00:52:17;;;;;;;47.95;39.70;;;;;;;;;;5114556;27;20664;-50
2021/01/01 00:54:42;;;;;;;49.38;39.45;;;;;;;;;;5110586;28;20751;-51
2021/01/01 00:57:07;;;;;;;50.35;39.25;;;;;;;;;;5113208;28;20170;-51
2021/01/01 00:59:32;;;;;;;47.47;37.97;;;;;;;;;;5113262;28;20212;-50
2021/01/01 01:01:57;;;;;;;46.13;37.72;;;;;;;;;;5113081;28;20223;-49
2021/01/01 01:04:22;;;;;;;38.88;33.20;;;;;;;;;;5111259;28;20249;-50
2021/01/01 01:06:48;;;;;;;37.13;32.13;;;;;;;;;;5112337;28;20175;-51
2021/01/01 01:09:13;;;;;;;34.13;30.53;;;;;;;;;;5113380;28;20570;-50
2021/01/01 01:11:38;;;;;;;37.35;30.08;;;;;;;;;;5108779;28;20175;-51
2021/01/01 01:14:03;;;;;;;28.90;25.23;;;;;;;;;;5110162;28;20176;-50
2021/01/01 01:16:30;;;;;;;32.53;26.90;;;;;;;;;;5112972;28;20227;-50
2021/01/01 01:18:55;;;;;;;31.40;27.03;;;;;;;;;;5112472;28;20224;-51
2021/01/01 01:21:21;;;;;;;29.80;26.60;;;;;;;;;;5112431;28;20649;-51
2021/01/01 01:23:46;;;;;;;32.33;28.80;;;;;;;;;;5112078;28;20232;-50
2021/01/01 01:26:12;;;;;;;37.33;30.87;;;;;;;;;;5111273;28;20174;-51
2021/01/01 01:28:37;;;;;;;33.83;29.70;;;;;;;;;;5112789;28;20514;-50
2021/01/01 01:31:02;;;;;;;35.83;29.83;;;;;;;;;;5112728;28;20173;-50
2021/01/01 01:33:27;;;;;;;36.13;29.33;;;;;;;;;;5112153;28;20196;-51
2021/01/01 01:35:53;;;;;;;33.35;28.45;;;;;;;;;;5109905;28;20237;-50
2021/01/01 01:38:18;;;;;;;33.80;28.37;;;;;;;;;;5110916;28;20530;-51
2021/01/01 01:40:43;;;;;;;32.83;27.57;;;;;;;;;;5112537;28;20313;-50
2021/01/01 01:43:08;;;;;;;30.85;26.77;;;;;;;;;;5112676;28;20194;-50
2021/01/01 01:45:33;;;;;;;30.50;25.83;;;;;;;;;;5110521;28;20237;-51
2021/01/01 01:47:59;;;;;;;30.85;25.65;;;;;;;;;;5110960;28;20532;-50
2021/01/01 01:50:24;;;;;;;31.57;25.77;;;;;;;;;;5112587;28;20524;-51
2021/01/01 01:52:50;;;;;;;34.07;26.23;;;;;;;;;;5112349;28;20735;-50
2021/01/01 01:55:15;;;;;;;29.57;26.37;;;;;;;;;;5110937;28;20176;-50
2021/01/01 01:57:41;;;;;;;29.07;25.00;;;;;;;;;;5112412;28;20179;-51
2021/01/01 02:00:35;;;;;;;28.30;25.20;;;;;;;;;;5112230;28;20655;-51
2021/01/01 02:02:57;;;;;;;30.50;24.87;;;;;;;;;;5107768;28;20177;-51
2021/01/01 02:05:23;;;;;;;30.03;25.27;;;;;;;;;;5110358;28;20597;-50
2021/01/01 02:07:48;;;;;;;34.00;26.35;;;;;;;;;;5111148;28;20184;-50
2021/01/01 02:10:14;;;;;;;29.70;25.40;;;;;;;;;;5112290;28;20200;-51
2021/01/01 02:12:40;;;;;;;31.87;25.53;;;;;;;;;;5112637;27;20538;-51
2021/01/01 02:15:05;;;;;;;32.10;26.20;;;;;;;;;;5110003;28;20218;-51
2021/01/01 02:17:30;;;;;;;30.57;24.13;;;;;;;;;;5108325;28;20170;-51
2021/01/01 02:20:09;;;;;;;28.17;25.17;;;;;;;;;;5111554;28;20222;-51
2021/01/01 02:22:37;;;;;;;29.57;26.20;;;;;;;;;;5111394;28;20208;-50
2021/01/01 02:25:06;;;;;;;28.43;24.10;;;;;;;;;;5109590;28;21266;-51
2021/01/01 02:27:32;;;;;;;28.30;22.90;;;;;;;;;;5111457;28;21257;-51
2021/01/01 02:29:57;;;;;;;26.00;22.87;;;;;;;;;;5111576;28;20689;-51
2021/01/01 02:32:22;;;;;;;27.13;21.58;;;;;;;;;;5111351;28;20185;-52
2021/01/01 02:34:47;;;;;;;27.33;22.00;;;;;;;;;;5109298;28;20208;-50
2021/01/01 02:37:12;;;;;;;26.27;22.65;;;;;;;;;;5109827;28;20186;-49
2021/01/01 02:39:37;;;;;;;26.30;22.50;;;;;;;;;;5111757;28;20195;-49
2021/01/01 02:42:03;;;;;;;24.73;20.50;;;;;;;;;;5111322;28;20607;-51
2021/01/01 02:44:28;;;;;;;28.00;21.90;;;;;;;;;;5110917;28;20841;-50
2021/01/01 02:46:58;;;;;;;24.50;20.15;;;;;;;;;;5109732;28;20169;-51
2021/01/01 02:49:23;;;;;;;23.97;20.70;;;;;;;;;;5111279;28;20174;-50
2021/01/01 02:51:48;;;;;;;24.75;20.08;;;;;;;;;;5110495;28;20604;-47
2021/01/01 02:54:32;;;;;;;26.02;20.63;;;;;;;;;;5110870;28;20321;-50
2021/01/01 02:56:57;;;;;;;24.30;20.80;;;;;;;;;;5108537;28;20228;-51
2021/01/01 02:59:22;;;;;;;23.60;20.65;;;;;;;;;;5110371;28;20660;-50
2021/01/01 03:01:47;;;;;;;26.80;20.20;;;;;;;;;;5110426;28;20207;-51
2021/01/01 03:04:13;;;;;;;24.70;21.83;;;;;;;;;;5112314;28;20255;-50
2021/01/01 03:06:38;;;;;;;23.90;20.80;;;;;;;;;;5108788;28;20174;-51
2021/01/01 03:09:05;;;;;;;27.35;23.08;;;;;;;;;;5110876;28;20587;-50
2021/01/01 03:11:30;;;;;;;25.40;20.77;;;;;;;;;;5110410;28;20715;-50
2021/01/01 03:13:56;;;;;;;26.53;21.97;;;;;;;;;;5110764;28;20652;-50
2021/01/01 03:16:21;;;;;;;25.47;21.97;;;;;;;;;;5108910;28;20183;-50
2021/01/01 03:18:46;;;;;;;24.65;21.13;;;;;;;;;;5110514;28;20607;-50
2021/01/01 03:21:11;;;;;;;26.48;22.05;;;;;;;;;;5108587;28;20865;-51
2021/01/01 03:23:36;;;;;;;26.80;22.07;;;;;;;;;;5110880;28;20255;-51
2021/01/01 03:26:02;;;;;;;28.50;23.17;;;;;;;;;;5108597;28;20178;-50
2021/01/01 03:28:27;;;;;;;36.15;26.05;;;;;;;;;;5110296;28;20234;-51
2021/01/01 03:30:52;;;;;;;30.80;24.17;;;;;;;;;;5110155;28;20175;-51
2021/01/01 03:33:17;;;;;;;26.53;22.30;;;;;;;;;;5109866;28;20175;-51
2021/01/01 03:35:42;;;;;;;25.80;22.38;;;;;;;;;;5108643;28;20640;-50
2021/01/01 03:38:07;;;;;;;26.63;21.77;;;;;;;;;;5110128;28;20205;-51
2021/01/01 03:40:33;;;;;;;28.13;23.50;;;;;;;;;;5110183;28;20166;-51
2021/01/01 03:42:58;;;;;;;31.63;23.63;;;;;;;;;;5110606;28;20172;-51
2021/01/01 03:45:23;;;;;;;29.10;23.80;;;;;;;;;;5110355;28;20180;-51
2021/01/01 03:47:48;;;;;;;26.50;22.07;;;;;;;;;;5108193;28;20668;-51
2021/01/01 03:50:13;;;;;;;26.88;23.38;;;;;;;;;;5109881;28;20173;-49
2021/01/01 03:52:39;;;;;;;27.17;22.20;;;;;;;;;;5110014;28;20178;-51
2021/01/01 03:55:04;;;;;;;26.58;22.85;;;;;;;;;;5110452;28;20253;-50
2021/01/01 03:57:29;;;;;;;27.83;23.33;;;;;;;;;;5106154;28;20645;-51
2021/01/01 03:59:54;;;;;;;26.42;21.85;;;;;;;;;;5110392;28;20182;-50
2021/01/01 04:02:19;;;;;;;29.63;24.58;;;;;;;;;;5114131;28;20200;-51
2021/01/01 04:04:45;;;;;;;29.98;23.30;;;;;;;;;;5113786;28;20176;-51
2021/01/01 04:07:10;;;;;;;31.25;22.70;;;;;;;;;;5111993;28;20201;-50
2021/01/01 04:09:35;;;;;;;29.70;24.13;;;;;;;;;;5114633;28;20174;-50
2021/01/01 04:12:00;;;;;;;28.67;23.20;;;;;;;;;;5114522;28;20187;-51
2021/01/01 04:14:26;;;;;;;28.77;23.50;;;;;;;;;;5114409;28;20173;-51
2021/01/01 04:16:51;;;;;;;28.40;21.80;;;;;;;;;;5110432;28;20223;-51
2021/01/01 04:19:16;;;;;;;28.17;22.73;;;;;;;;;;5108436;28;20283;-50
2021/01/01 04:21:48;;;;;;;28.80;23.90;;;;;;;;;;5113675;28;20216;-51
2021/01/01 04:24:13;;;;;;;29.47;24.63;;;;;;;;;;5114526;28;20569;-51
2021/01/01 04:26:38;;;;;;;30.30;23.73;;;;;;;;;;5109726;28;20587;-50
2021/01/01 04:29:04;;;;;;;32.17;24.07;;;;;;;;;;5121699;27;20177;-51
2021/01/01 04:31:29;;;;;;;30.95;25.15;;;;;;;;;;5116268;27;20647;-51
2021/01/01 04:33:54;;;;;;;35.10;25.60;;;;;;;;;;5114223;28;20174;-51
2021/01/01 04:36:19;;;;;;;31.95;24.70;;;;;;;;;;5112182;28;20200;-51
2021/01/01 04:38:44;;;;;;;34.00;24.43;;;;;;;;;;5111320;28;20663;-51
2021/01/01 04:41:10;;;;;;;32.92;25.42;;;;;;;;;;5113765;28;20202;-51
2021/01/01 04:43:36;;;;;;;31.73;26.40;;;;;;;;;;5113848;28;20212;-51
2021/01/01 04:46:02;;;;;;;36.17;26.77;;;;;;;;;;5111581;28;20204;-51
2021/01/01 04:48:27;;;;;;;31.00;25.17;;;;;;;;;;5111653;28;20662;-50
2021/01/01 04:50:52;;;;;;;35.33;27.20;;;;;;;;;;5113368;28;20629;-51
2021/01/01 04:53:20;;;;;;;31.53;26.23;;;;;;;;;;5113458;28;20547;-51
2021/01/01 04:55:45;;;;;;;38.60;29.40;;;;;;;;;;5111910;28;20644;-51
2021/01/01 04:58:11;;;;;;;37.20;28.17;;;;;;;;;;5111562;28;20609;-51
2021/01/01 05:00:36;;;;;;;35.80;28.30;;;;;;;;;;5113067;28;20200;-51
2021/01/01 05:03:02;;;;;;;32.90;25.90;;;;;;;;;;5109366;28;20192;-51
2021/01/01 05:05:27;;;;;;;32.20;25.80;;;;;;;;;;5111367;28;20197;-51
2021/01/01 05:07:53;;;;;;;35.53;26.57;;;;;;;;;;5113193;28;20583;-50
2021/01/01 05:10:18;;;;;;;33.97;27.40;;;;;;;;;;5112496;28;20212;-51
2021/01/01 05:12:43;;;;;;;38.77;29.10;;;;;;;;;;5113044;28;20174;-50
2021/01/01 05:15:08;;;;;;;35.40;28.67;;;;;;;;;;5113418;28;20169;-51
2021/01/01 05:17:34;;;;;;;34.90;25.83;;;;;;;;;;5109458;28;20177;-52
2021/01/01 05:20:09;;;;;;;35.97;27.53;;;;;;;;;;5112282;28;20218;-50
2021/01/01 05:22:34;;;;;;;36.30;27.17;;;;;;;;;;5113303;28;20746;-52
2021/01/01 05:25:32;;;;;;;34.60;26.80;;;;;;;;;;5112741;28;20684;-50
2021/01/01 05:27:59;;;;;;;36.47;28.13;;;;;;;;;;5063327;28;20173;-51
2021/01/01 05:30:31;;;;;;;38.33;29.63;;;;;;;;;;5112624;28;20605;-50
2021/01/01 05:32:56;;;;;;;34.43;27.30;;;;;;;;;;5112764;28;21057;-51
2021/01/01 05:35:27;;;;;;;38.27;28.07;;;;;;;;;;5112877;28;20591;-50
2021/01/01 05:37:53;;;;;;;37.63;29.73;;;;;;;;;;5105708;28;20180;-50
2021/01/01 05:40:27;;;;;;;35.67;27.70;;;;;;;;;;5113054;28;20590;-50
2021/01/01 05:42:52;;;;;;;32.20;25.70;;;;;;;;;;5109918;28;20201;-51
2021/01/01 05:45:18;;;;;;;35.63;27.77;;;;;;;;;;5112106;28;20587;-51
2021/01/01 05:48:02;;;;;;;40.27;28.60;;;;;;;;;;5108824;28;20180;-51
2021/01/01 05:50:27;;;;;;;37.40;29.23;;;;;;;;;;5111998;27;21197;-51
2021/01/01 05:53:07;;;;;;;41.88;29.35;;;;;;;;;;5112256;28;20593;-51
2021/01/01 05:55:32;;;;;;;33.77;27.40;;;;;;;;;;5109906;28;20182;-50
2021/01/01 05:57:58;;;;;;;36.40;28.00;;;;;;;;;;5110482;28;20944;-50
2021/01/01 06:00:23;;;;;;;37.37;27.93;;;;;;;;;;5111215;28;20176;-50
2021/01/01 06:02:48;;;;;;;36.87;27.37;;;;;;;;;;5112150;28;20257;-51
2021/01/01 06:05:13;;;;;;;35.70;27.77;;;;;;;;;;5112164;28;20175;-50
2021/01/01 06:07:39;;;;;;;33.15;25.33;;;;;;;;;;5110222;28;20220;-50
2021/01/01 06:10:05;;;;;;;34.10;28.60;;;;;;;;;;5111705;28;20428;-51
2021/01/01 06:12:33;;;;;;;46.90;29.00;;;;;;;;;;5111560;28;20604;-51
2021/01/01 06:15:02;;;;;;;36.83;26.70;;;;;;;;;;5111932;28;20594;-50
2021/01/01 06:17:33;;;;;;;35.07;26.60;;;;;;;;;;5108390;28;20595;-50
2021/01/01 06:19:58;;;;;;;32.93;27.07;;;;;;;;;;5111621;28;20650;-51
2021/01/01 06:22:25;;;;;;;38.13;28.23;;;;;;;;;;5111666;28;21042;-50
2021/01/01 06:24:51;;;;;;;35.10;28.00;;;;;;;;;;5110734;28;20586;-50
2021/01/01 06:27:17;;;;;;;38.43;29.03;;;;;;;;;;5107578;28;20594;-50
2021/01/01 06:29:43;;;;;;;38.67;27.30;;;;;;;;;;5109960;28;20905;-50
2021/01/01 06:32:09;;;;;;;38.20;28.83;;;;;;;;;;5111440;28;20180;-51
2021/01/01 06:34:35;;;;;;;35.80;27.57;;;;;;;;;;5111563;28;21208;-50
2021/01/01 06:37:00;;;;;;;34.67;26.30;;;;;;;;;;5109333;28;20594;-50
2021/01/01 06:39:35;;;;;;;33.63;27.60;;;;;;;;;;5111657;28;20168;-51
2021/01/01 06:42:00;;;;;;;34.73;27.10;;;;;;;;;;5110670;28;20263;-50
2021/01/01 06:44:32;;;;;;;32.73;27.47;;;;;;;;;;5111215;28;20600;-50
2021/01/01 06:46:57;;;;;;;33.50;26.20;;;;;;;;;;5086967;28;20644;-51
2021/01/01 06:49:30;;;;;;;38.63;28.60;;;;;;;;;;5111446;28;20594;-51
2021/01/01 06:52:11;;;;;;;34.27;27.53;;;;;;;;;;5111393;28;20562;-51
2021/01/01 06:54:55;;;;;;;36.33;28.33;;;;;;;;;;5109866;28;21220;-51
2021/01/01 06:57:24;;;;;;;38.40;27.97;;;;;;;;;;5109466;28;20666;-50
2021/01/01 06:59:49;;;;;;;36.37;28.47;;;;;;;;;;5107802;28;21159;-50
2021/01/01 07:02:19;;;;;;;38.00;30.07;;;;;;;;;;5111294;28;20646;-51
2021/01/01 07:04:47;;;;;;;35.77;27.50;;;;;;;;;;5110114;28;20172;-51
2021/01/01 07:07:32;;;;;;;35.20;28.93;;;;;;;;;;5108524;28;20583;-50
2021/01/01 07:09:58;;;;;;;35.80;25.97;;;;;;;;;;5110040;28;20601;-50
2021/01/01 07:12:23;;;;;;;38.67;28.15;;;;;;;;;;5110856;28;20597;-51
2021/01/01 07:14:48;;;;;;;34.05;27.45;;;;;;;;;;5110034;28;20251;-50
2021/01/01 07:17:13;;;;;;;35.53;26.23;;;;;;;;;;5109011;28;20533;-51
2021/01/01 07:19:38;;;;;;;34.53;26.38;;;;;;;;;;5110181;28;20244;-51
2021/01/01 07:22:03;;;;;;;37.17;28.20;;;;;;;;;;5110334;28;20246;-51
2021/01/01 07:24:28;;;;;;;43.60;28.98;;;;;;;;;;5109854;28;20195;-51
2021/01/01 07:26:55;;;;;;;33.25;26.23;;;;;;;;;;5108122;28;20209;-51
2021/01/01 07:29:23;;;;;;;32.83;27.03;;;;;;;;;;5110621;28;20181;-51
2021/01/01 07:31:49;;;;;;;33.37;27.30;;;;;;;;;;5109863;28;20591;-51
2021/01/01 07:34:14;;;;;;;32.77;26.70;;;;;;;;;;5110486;28;21192;-49
2021/01/01 07:36:39;;;;;;;32.92;26.20;;;;;;;;;;5110348;27;20606;-51
2021/01/01 07:39:05;;;;;;;33.47;26.40;;;;;;;;;;5110307;28;20191;-51
2021/01/01 07:41:30;;;;;;;39.83;28.13;;;;;;;;;;5110370;28;20208;-51
2021/01/01 07:43:55;;;;;;;34.25;25.70;;;;;;;;;;5109685;28;20600;-50
2021/01/01 07:46:21;;;;;;;33.13;26.07;;;;;;;;;;5109726;27;20205;-50
2021/01/01 07:48:51;;;;;;;32.70;26.33;;;;;;;;;;5107534;28;20592;-51
2021/01/01 07:51:18;;;;;;;30.30;25.70;;;;;;;;;;5109163;28;20270;-50
2021/01/01 07:53:43;;;;;;;31.80;26.33;;;;;;;;;;5109808;28;20616;-50
2021/01/01 07:56:08;;;;;;;31.67;25.50;;;;;;;;;;5108192;28;20735;-51
2021/01/01 07:58:34;;;;;;;34.17;26.43;;;;;;;;;;5108391;28;20269;-51
2021/01/01 08:01:01;;;;;;;34.87;27.20;;;;;;;;;;5114106;28;20178;-50
2021/01/01 08:03:26;;;;;;;34.60;26.90;;;;;;;;;;5108933;28;20643;-51
2021/01/01 08:05:52;;;;;;;34.63;27.57;;;;;;;;;;5109185;28;21144;-51
2021/01/01 08:08:23;;;;;;;35.33;27.47;;;;;;;;;;5105572;28;20634;-51
2021/01/01 08:10:50;;;;;;;33.13;26.20;;;;;;;;;;5108108;28;20174;-50
2021/01/01 08:13:19;;;;;;;35.90;27.63;;;;;;;;;;5108738;28;20606;-50
2021/01/01 08:15:45;;;;;;;36.30;26.90;;;;;;;;;;5108618;28;20690;-49
2021/01/01 08:18:20;;;;;;;31.47;26.80;;;;;;;;;;5109152;28;20800;-48
2021/01/01 08:21:04;;;;;;;33.83;26.83;;;;;;;;;;5115104;28;20553;-48
2021/01/01 08:23:48;;;;;;;38.37;27.70;;;;;;;;;;5105311;28;20617;-48
2021/01/01 08:26:13;;;;;;;36.00;26.77;;;;;;;;;;5105943;28;20628;-49
2021/01/01 08:28:40;;;;;;;33.93;26.90;;;;;;;;;;5109311;28;20719;-49
2021/01/01 08:31:06;;;;;;;34.23;27.80;;;;;;;;;;5106635;28;20594;-48
2021/01/01 08:33:33;;;;;;;34.20;27.83;;;;;;;;;;5105952;28;20652;-48
2021/01/01 08:35:59;;;;;;;34.80;27.10;;;;;;;;;;5104361;28;20588;-48
2021/01/01 08:38:25;;;;;;;35.43;28.60;;;;;;;;;;5104263;28;20635;-49
2021/01/01 08:40:54;;;;;;;33.50;27.40;;;;;;;;;;5105762;28;20594;-49
2021/01/01 08:43:19;;;;;;;32.73;26.90;;;;;;;;;;5105848;28;20166;-49
2021/01/01 08:45:44;;;;;;;36.60;29.93;;;;;;;;;;5106467;28;20649;-49
2021/01/01 08:48:10;;;;;;;34.37;27.87;;;;;;;;;;5107365;28;20683;-49
2021/01/01 08:50:41;;;;;;;35.93;28.33;;;;;;;;;;5109794;28;20177;-49
2021/01/01 08:53:06;;;;;;;35.00;28.87;;;;;;;;;;5110128;28;21333;-48
2021/01/01 08:55:34;;;;;;;32.33;27.77;;;;;;;;;;5110519;28;20687;-48
2021/01/01 08:58:06;;;;;;;35.73;29.23;;;;;;;;;;5106134;28;20190;-49
2021/01/01 09:00:32;;;;;;;36.80;27.50;;;;;;;;;;5108548;28;20596;-49
2021/01/01 09:02:58;;;;;;;33.67;28.23;;;;;;;;;;5109195;28;20654;-49
2021/01/01 09:05:24;;;;;;;33.23;27.67;;;;;;;;;;5109532;28;20307;-50
2021/01/01 09:08:03;;;;;;;36.60;28.33;;;;;;;;;;5108615;28;20643;-49
2021/01/01 09:10:29;;;;;;;36.73;27.80;;;;;;;;;;5109047;28;20594;-50
2021/01/01 09:12:54;;;;;;;34.23;27.27;;;;;;;;;;5109134;28;20598;-50
2021/01/01 09:15:26;;;;;;;35.05;29.02;;;;;;;;;;5109828;28;20584;-49
2021/01/01 09:17:51;;;;;;;37.97;28.27;;;;;;;;;;5107283;28;20807;-49
2021/01/01 09:20:21;;;;;;;36.05;28.58;;;;;;;;;;5108890;28;21044;-51
2021/01/01 09:22:46;;;;;;;38.33;28.90;;;;;;;;;;5109519;28;20210;-49
2021/01/01 09:25:18;;;;;;;34.70;27.83;;;;;;;;;;5109459;28;20633;-51
2021/01/01 09:27:44;;;;;;;34.27;27.17;;;;;;;;;;5106736;28;20188;-50
2021/01/01 09:30:10;;;;;;;33.53;27.30;;;;;;;;;;5111790;27;20602;-49
2021/01/01 09:32:35;;;;;;;39.83;28.93;;;;;;;;;;5111719;27;20608;-49
2021/01/01 09:35:00;;;;;;;32.85;27.40;;;;;;;;;;5109141;28;20215;-50
2021/01/01 09:37:25;;;;;;;33.83;27.73;;;;;;;;;;5107826;28;20182;-50
2021/01/01 09:39:50;;;;;;;40.17;29.23;;;;;;;;;;5107606;28;20631;-50
2021/01/01 09:42:15;;;;;;;35.38;27.35;;;;;;;;;;5108934;27;20206;-50
2021/01/01 09:44:40;;;;;;;34.85;28.63;;;;;;;;;;5107190;28;20181;-50
2021/01/01 09:47:06;;;;;;;35.45;28.60;;;;;;;;;;5108920;28;20215;-50
2021/01/01 09:49:31;;;;;;;31.73;26.60;;;;;;;;;;5111542;28;20181;-50
2021/01/01 09:51:56;;;;;;;31.30;26.85;;;;;;;;;;5111397;28;20174;-50
2021/01/01 09:54:21;;;;;;;37.05;28.70;;;;;;;;;;5112340;28;20441;-50
2021/01/01 09:56:46;;;;;;;35.10;27.38;;;;;;;;;;5111562;28;20228;-50
2021/01/01 09:59:11;;;;;;;36.97;29.05;;;;;;;;;;5106031;28;20172;-51
2021/01/01 10:01:37;;;;;;;33.23;28.30;;;;;;;;;;5111015;28;20706;-51
2021/01/01 10:04:02;;;;;;;33.85;27.52;;;;;;;;;;5110109;28;20223;-49
2021/01/01 10:06:27;;;;;;;32.93;27.77;;;;;;;;;;5107770;28;20176;-51
2021/01/01 10:08:52;;;;;;;34.00;28.27;;;;;;;;;;5110393;28;20174;-51
2021/01/01 10:11:17;;;;;;;34.30;28.23;;;;;;;;;;5112379;28;20544;-50
2021/01/01 10:13:42;;;;;;;36.63;28.77;;;;;;;;;;5111639;28;20170;-50
2021/01/01 10:16:08;;;;;;;38.00;27.70;;;;;;;;;;5112220;28;20174;-51
2021/01/01 10:18:33;;;;;;;35.00;29.30;;;;;;;;;;5110177;28;20356;-51
2021/01/01 10:20:59;;;;;;;31.60;27.23;;;;;;;;;;5111839;28;20177;-49
2021/01/01 10:23:24;;;;;;;35.00;28.40;;;;;;;;;;5111697;28;20625;-50
2021/01/01 10:25:49;;;;;;;33.67;27.17;;;;;;;;;;5111925;28;20179;-50
2021/01/01 10:28:14;;;;;;;35.10;28.90;;;;;;;;;;5108318;28;20654;-49
2021/01/01 10:30:41;;;;;;;35.13;28.52;;;;;;;;;;5111900;28;20537;-49
2021/01/01 10:33:06;;;;;;;35.10;29.13;;;;;;;;;;5111517;27;20173;-49
2021/01/01 10:35:31;;;;;;;36.67;28.77;;;;;;;;;;5111346;28;20645;-48
2021/01/01 10:37:57;;;;;;;31.77;28.27;;;;;;;;;;5109750;28;20317;-49
2021/01/01 10:40:22;;;;;;;37.85;29.75;;;;;;;;;;5111700;28;20209;-49
2021/01/01 10:42:47;;;;;;;39.60;30.52;;;;;;;;;;5111192;28;20206;-48
2021/01/01 10:45:12;;;;;;;34.30;27.40;;;;;;;;;;5110782;28;20203;-48
2021/01/01 10:47:37;;;;;;;34.23;28.00;;;;;;;;;;5109759;28;20200;-48
2021/01/01 10:50:03;;;;;;;33.37;28.17;;;;;;;;;;5109727;28;20215;-49
2021/01/01 10:52:28;;;;;;;30.00;26.83;;;;;;;;;;5111674;28;20646;-48
2021/01/01 10:54:53;;;;;;;33.90;28.67;;;;;;;;;;5110714;28;20655;-49
2021/01/01 10:57:18;;;;;;;34.00;28.77;;;;;;;;;;5110881;28;20211;-49
2021/01/01 10:59:43;;;;;;;33.72;27.83;;;;;;;;;;5107703;28;20176;-49
2021/01/01 11:02:08;;;;;;;34.00;27.85;;;;;;;;;;5111090;28;20285;-48
2021/01/01 11:04:34;;;;;;;35.20;27.85;;;;;;;;;;5111188;28;20158;-50
2021/01/01 11:06:59;;;;;;;35.05;28.95;;;;;;;;;;5108728;28;20185;-49
2021/01/01 11:09:24;;;;;;;35.17;28.30;;;;;;;;;;5107408;28;20251;-49
2021/01/01 11:11:53;;;;;;;33.47;28.40;;;;;;;;;;5111020;28;20713;-49
2021/01/01 12:23:13;;;;;;;37.30;28.83;;;;;;;;;;5072512;28;20732;-49
2021/01/01 12:25:38;;;;;;;35.90;27.90;;;;;;;;;;5073602;28;20612;-48
2021/01/01 12:28:04;;;;;;;31.83;28.27;;;;;;;;;;5071514;28;20569;-49
2021/01/01 12:30:31;;;;;;;32.57;28.43;;;;;;;;;;5073412;28;20178;-48
2021/01/01 12:32:56;;;;;;;32.13;27.50;;;;;;;;;;5073535;28;20596;-48
2021/01/01 12:35:21;;;;;;;31.83;28.13;;;;;;;;;;5073242;28;20584;-47
2021/01/01 12:37:56;;;;;;;32.63;27.57;;;;;;;;;;5073331;28;20210;-48
2021/01/01 12:40:22;;;;;;;31.20;26.90;;;;;;;;;;5071108;28;20204;-49
2021/01/01 12:42:47;;;;;;;31.77;26.90;;;;;;;;;;5073296;28;20641;-48
2021/01/01 12:45:12;;;;;;;33.13;26.65;;;;;;;;;;5073262;28;20164;-49
2021/01/01 12:47:37;;;;;;;34.40;27.47;;;;;;;;;;5072928;28;20213;-49
2021/01/01 12:50:03;;;;;;;36.23;28.27;;;;;;;;;;5070836;28;20178;-49
2021/01/01 12:52:28;;;;;;;31.60;27.13;;;;;;;;;;5072923;28;20179;-49
2021/01/01 12:54:54;;;;;;;34.40;27.45;;;;;;;;;;5073035;28;20178;-49
2021/01/01 12:57:19;;;;;;;32.37;26.50;;;;;;;;;;5072688;28;20179;-49
2021/01/01 12:59:44;;;;;;;33.67;26.65;;;;;;;;;;5071076;28;20241;-50
2021/01/01 13:02:09;;;;;;;33.33;27.03;;;;;;;;;;5072230;28;20268;-49
2021/01/01 13:04:34;;;;;;;29.17;24.97;;;;;;;;;;5073084;28;20425;-48
2021/01/01 13:06:59;;;;;;;34.45;25.40;;;;;;;;;;5072548;28;20173;-48
2021/01/01 13:09:25;;;;;;;33.90;26.73;;;;;;;;;;5070527;28;20532;-49
2021/01/01 13:11:50;;;;;;;30.55;26.52;;;;;;;;;;5072401;28;20540;-48
2021/01/01 13:14:15;;;;;;;30.37;26.10;;;;;;;;;;5072598;28;20520;-49
2021/01/01 13:16:45;;;;;;;32.87;26.33;;;;;;;;;;5072395;28;20173;-48
2021/01/01 13:19:11;;;;;;;34.87;26.97;;;;;;;;;;5093103;28;20288;-48
2021/01/01 13:21:37;;;;;;;28.43;24.70;;;;;;;;;;5113145;28;21263;-49
2021/01/01 13:24:03;;;;;;;32.90;26.03;;;;;;;;;;5112300;28;20908;-49
2021/01/01 13:26:28;;;;;;;31.77;25.40;;;;;;;;;;5113230;28;20603;-49
2021/01/01 13:28:54;;;;;;;34.53;28.00;;;;;;;;;;5111047;28;20568;-49
2021/01/01 13:31:20;;;;;;;32.20;24.53;;;;;;;;;;5110887;28;20181;-48
2021/01/01 13:33:45;;;;;;;31.90;26.50;;;;;;;;;;5111096;28;20185;-48
2021/01/01 13:36:15;;;;;;;30.37;26.37;;;;;;;;;;5112928;28;20300;-49
2021/01/01 13:38:40;;;;;;;32.00;27.47;;;;;;;;;;5108154;28;20174;-49
2021/01/01 13:41:05;;;;;;;38.37;30.57;;;;;;;;;;5108091;28;20594;-50
2021/01/01 13:43:30;;;;;;;37.03;29.50;;;;;;;;;;5117719;27;20272;-49
2021/01/01 13:45:56;;;;;;;37.45;29.50;;;;;;;;;;5116753;27;20201;-49
2021/01/01 13:48:21;;;;;;;31.92;27.30;;;;;;;;;;5112218;28;20181;-48
2021/01/01 13:50:46;;;;;;;34.40;28.67;;;;;;;;;;5108256;27;20636;-49
2021/01/01 13:53:11;;;;;;;33.27;28.53;;;;;;;;;;5111852;28;20172;-51
2021/01/01 13:55:36;;;;;;;34.97;28.73;;;;;;;;;;5111945;28;20178;-48
2021/01/01 13:58:01;;;;;;;35.67;30.58;;;;;;;;;;5112103;28;20181;-49
2021/01/01 14:00:27;;;;;;;36.33;28.60;;;;;;;;;;5107963;27;20216;-48
2021/01/01 14:02:52;;;;;;;32.63;27.67;;;;;;;;;;5112319;28;20205;-49
2021/01/01 14:05:17;;;;;;;36.53;29.90;;;;;;;;;;5111861;28;20257;-50
2021/01/01 14:07:42;;;;;;;33.08;28.98;;;;;;;;;;5110352;28;20540;-50
2021/01/01 14:10:07;;;;;;;31.27;27.17;;;;;;;;;;5119250;27;20176;-50
2021/01/01 14:12:33;;;;;;;33.33;27.13;;;;;;;;;;5112749;27;20921;-49
2021/01/01 14:14:58;;;;;;;33.80;27.73;;;;;;;;;;5093617;28;20179;-49
2021/01/01 14:17:23;;;;;;;30.70;25.77;;;;;;;;;;5111679;28;20242;-49
2021/01/01 14:19:48;;;;;;;32.20;26.00;;;;;;;;;;5109391;28;20289;-49
2021/01/01 14:22:13;;;;;;;32.22;26.83;;;;;;;;;;5111625;28;20201;-50
2021/01/01 14:24:38;;;;;;;34.17;25.92;;;;;;;;;;5109445;28;20198;-49
2021/01/01 14:27:04;;;;;;;37.75;27.60;;;;;;;;;;5110101;28;20255;-50
2021/01/01 14:29:29;;;;;;;32.90;27.30;;;;;;;;;;5110606;27;20170;-50
2021/01/01 14:31:54;;;;;;;33.33;26.67;;;;;;;;;;5111587;28;20170;-50
2021/01/01 14:34:19;;;;;;;30.85;26.92;;;;;;;;;;5110868;28;20178;-50
2021/01/01 14:36:44;;;;;;;30.27;25.63;;;;;;;;;;5111608;28;20208;-49
2021/01/01 14:39:12;;;;;;;33.00;26.70;;;;;;;;;;5106714;28;20177;-50
2021/01/01 14:41:37;;;;;;;30.77;26.20;;;;;;;;;;5110517;27;20228;-50
2021/01/01 14:44:02;;;;;;;29.70;25.42;;;;;;;;;;5107440;28;20632;-50
2021/01/01 14:46:27;;;;;;;37.13;29.40;;;;;;;;;;5108104;28;20306;-50
2021/01/01 14:48:53;;;;;;;35.40;28.00;;;;;;;;;;5114569;27;20183;-50
2021/01/01 14:51:18;;;;;;;33.90;27.70;;;;;;;;;;5108173;28;20174;-50
2021/01/01 14:53:47;;;;;;;30.87;27.07;;;;;;;;;;5108691;27;20646;-49
2021/01/01 14:56:12;;;;;;;34.30;26.90;;;;;;;;;;5108972;27;20684;-50
2021/01/01 14:58:37;;;;;;;31.50;26.23;;;;;;;;;;5109272;28;21002;-50
2021/01/01 15:01:03;;;;;;;34.30;26.65;;;;;;;;;;5106404;28;20177;-49
2021/01/01 15:03:28;;;;;;;34.53;27.00;;;;;;;;;;5109539;28;20178;-49
2021/01/01 15:05:53;;;;;;;33.23;27.43;;;;;;;;;;5108808;28;20181;-50
2021/01/01 15:08:18;;;;;;;32.40;27.10;;;;;;;;;;5107674;28;20259;-49
2021/01/01 15:10:43;;;;;;;33.05;27.58;;;;;;;;;;5103599;28;20177;-51
2021/01/01 15:13:09;;;;;;;36.25;27.98;;;;;;;;;;5107443;28;20182;-49
2021/01/01 15:15:34;;;;;;;36.80;29.20;;;;;;;;;;5107034;28;20186;-51
2021/01/01 15:17:59;;;;;;;34.30;27.73;;;;;;;;;;5107927;28;20177;-50
2021/01/01 15:20:24;;;;;;;32.40;26.88;;;;;;;;;;5103852;28;20172;-50